Time,TemperatureF,DewpointF,PressureIn,WindDirection,WindDirectionDegrees,WindSpeedMPH,WindSpeedGustMPH,Humidity,HourlyPrecipIn,Conditions,Clouds,dailyrainin,SolarRadiationWatts/m^2,SoftwareType,DateUTC
2013-03-20 00:00:00,60.2,53.3,30.02,NW,304,5.0,5.0,78,0.00,,,0.00,0,Wunderground v.1.15,2013-03-20 05:00:00,
2013-03-20 00:10:00,59.5,52.6,30.03,North,5,5.0,5.0,78,0.00,,,0.00,0,Wunderground v.1.15,2013-03-20 05:10:00,
2013-03-20 00:15:00,59.5,52.6,30.04,WNW,296,4.0,13.0,78,0.00,,,0.00,0,Wunderground v.1.15,2013-03-20 05:15:00,
2013-03-20 00:20:00,59.4,52.5,30.04,WNW,294,5.0,7.0,78,0.00,,,0.00,0,Wunderground v.1.15,2013-03-20 05:20:00,
2013-03-20 00:30:00,59.5,51.9,30.04,NNE,12,4.0,4.0,76,0.00,,,0.00,0,Wunderground v.1.15,2013-03-20 05:30:00,
2013-03-20 00:35:00,59.5,51.6,30.05,WNW,296,3.0,5.0,75,0.00,,,0.00,0,Wunderground v.1.15,2013-03-20 05:35:00,
2013-03-20 00:45:00,59.5,51.9,30.05,North,5,4.0,4.0,76,0.00,,,0.00,0,Wunderground v.1.15,2013-03-20 05:45:00,
2013-03-20 00:50:00,59.5,51.9,30.06,NW,309,4.0,4.0,76,0.00,,,0.00,0,Wunderground v.1.15,2013-03-20 05:50:00,
2013-03-20 00:55:00,59.4,51.8,30.06,North,355,3.0,4.0,76,0.00,,,0.00,0,Wunderground v.1.15,2013-03-20 05:55:00,
2013-03-20 01:00:00,59.2,51.3,30.08,NW,325,5.0,5.0,75,0.00,,,0.00,0,Wunderground v.1.15,2013-03-20 06:00:00,
2013-03-20 01:05:00,58.9,51.0,30.09,WNW,300,6.0,13.0,75,0.00,,,0.00,0,Wunderground v.1.15,2013-03-20 06:05:00,
2013-03-20 01:15:00,58.4,51.2,30.07,NNW,338,6.0,15.0,77,0.00,,,0.00,0,Wunderground v.1.15,2013-03-20 06:15:00,
2013-03-20 01:20:00,58.0,50.8,30.07,North,5,6.0,6.0,77,0.00,,,0.00,0,Wunderground v.1.15,2013-03-20 06:20:00,
2013-03-20 01:25:00,57.8,50.6,30.06,North,360,6.0,10.0,77,0.00,,,0.00,0,Wunderground v.1.15,2013-03-20 06:25:00,
2013-03-20 01:30:00,58.0,50.5,30.06,NNE,25,4.0,4.0,76,0.00,,,0.00,0,Wunderground v.1.15,2013-03-20 06:30:00,
2013-03-20 01:35:00,58.5,50.6,30.05,NNE,13,5.0,7.0,75,0.00,,,0.00,0,Wunderground v.1.15,2013-03-20 06:35:00,
2013-03-20 01:45:00,59.1,51.2,30.05,NNW,343,3.0,4.0,75,0.00,,,0.00,0,Wunderground v.1.15,2013-03-20 06:45:00,
2013-03-20 01:50:00,59.2,51.3,30.05,North,360,3.0,6.0,75,0.00,,,0.00,0,Wunderground v.1.15,2013-03-20 06:50:00,
2013-03-20 01:55:00,59.1,51.2,30.05,NNW,348,3.0,6.0,75,0.00,,,0.00,0,Wunderground v.1.15,2013-03-20 06:55:00,
2013-03-20 02:00:00,59.0,51.1,30.04,NNE,19,3.0,3.0,75,0.00,,,0.00,0,Wunderground v.1.15,2013-03-20 07:00:00,
2013-03-20 02:05:00,58.9,51.0,30.02,North,5,3.0,3.0,75,0.00,,,0.00,0,Wunderground v.1.15,2013-03-20 07:05:00,
2013-03-20 02:10:00,58.8,50.9,30.02,NNE,30,3.0,4.0,75,0.00,,,0.00,0,Wunderground v.1.15,2013-03-20 07:10:00,
2013-03-20 02:20:00,58.5,51.3,30.03,WSW,248,4.0,6.0,77,0.00,,,0.00,0,Wunderground v.1.15,2013-03-20 07:20:00,
2013-03-20 02:25:00,58.8,51.2,30.12,SE,136,5.0,6.0,76,0.00,,,0.00,0,Wunderground v.1.15,2013-03-20 07:25:00,
2013-03-20 02:30:00,53.9,47.2,30.12,NNE,24,7.0,7.0,78,6.94,,,0.45,0,Wunderground v.1.15,2013-03-20 07:30:00,
2013-03-20 02:35:00,51.9,49.1,30.05,SSW,205,6.0,7.0,90,0.36,,,0.56,0,Wunderground v.1.15,2013-03-20 07:35:00,
2013-03-20 02:45:00,51.8,49.8,30.06,South,173,2.0,4.0,93,0.12,,,0.58,0,Wunderground v.1.15,2013-03-20 07:45:00,
2013-03-20 02:50:00,51.6,49.6,30.06,South,173,0.0,0.0,93,0.07,,,0.58,0,Wunderground v.1.15,2013-03-20 07:50:00,
2013-03-20 02:55:00,51.3,49.3,30.07,SW,234,1.0,1.0,93,0.04,,,0.58,0,Wunderground v.1.15,2013-03-20 07:55:00,
2013-03-20 03:00:00,51.2,49.5,30.08,SW,234,1.0,1.0,94,0.00,,,0.58,0,Wunderground v.1.15,2013-03-20 08:00:00,
2013-03-20 03:10:00,51.0,49.3,30.07,SW,234,0.0,0.0,94,0.00,,,0.59,0,Wunderground v.1.15,2013-03-20 08:10:00,
2013-03-20 03:15:00,51.0,49.3,30.08,SW,234,0.0,0.0,94,0.00,,,0.59,0,Wunderground v.1.15,2013-03-20 08:15:00,
2013-03-20 03:25:00,51.4,50.0,30.08,WSW,238,0.0,0.0,95,0.00,,,0.59,0,Wunderground v.1.15,2013-03-20 08:25:00,
2013-03-20 03:30:00,52.3,51.2,30.08,NW,316,1.0,2.0,96,0.00,,,0.60,0,Wunderground v.1.15,2013-03-20 08:30:00,
2013-03-20 03:35:00,52.9,51.8,30.07,NNW,345,1.0,2.0,96,0.00,,,0.60,0,Wunderground v.1.15,2013-03-20 08:35:00,
2013-03-20 03:40:00,53.1,52.0,30.05,NW,315,0.0,0.0,96,0.00,,,0.60,0,Wunderground v.1.15,2013-03-20 08:40:00,
2013-03-20 03:45:00,53.3,52.2,30.05,NW,312,0.0,0.0,96,0.00,,,0.60,0,Wunderground v.1.15,2013-03-20 08:45:00,
2013-03-20 03:55:00,53.7,52.6,30.06,WNW,301,1.0,3.0,96,0.00,,,0.60,0,Wunderground v.1.15,2013-03-20 08:55:00,
2013-03-20 04:00:00,53.9,52.8,30.09,West,274,2.0,2.0,96,0.00,,,0.60,0,Wunderground v.1.15,2013-03-20 09:00:00,
2013-03-20 04:05:00,54.0,52.9,30.09,West,273,2.0,2.0,96,0.00,,,0.61,0,Wunderground v.1.15,2013-03-20 09:05:00,
2013-03-20 04:10:00,54.0,52.9,30.10,West,273,1.0,1.0,96,0.00,,,0.61,0,Wunderground v.1.15,2013-03-20 09:10:00,
2013-03-20 04:15:00,54.0,52.9,30.14,SW,233,1.0,3.0,96,0.05,,,0.62,0,Wunderground v.1.15,2013-03-20 09:15:00,
2013-03-20 04:20:00,54.1,53.0,30.14,South,184,3.0,3.0,96,0.05,,,0.62,0,Wunderground v.1.15,2013-03-20 09:20:00,
2013-03-20 04:30:00,54.1,53.0,30.08,West,276,1.0,1.0,96,0.22,,,0.64,0,Wunderground v.1.15,2013-03-20 09:30:00,
2013-03-20 04:35:00,54.1,53.0,30.09,West,276,0.0,1.0,96,0.08,,,0.64,0,Wunderground v.1.15,2013-03-20 09:35:00,
2013-03-20 04:40:00,54.1,53.0,30.09,West,276,0.0,0.0,96,0.05,,,0.64,0,Wunderground v.1.15,2013-03-20 09:40:00,
2013-03-20 04:45:00,54.1,53.0,30.09,WNW,282,0.0,2.0,96,0.00,,,0.64,0,Wunderground v.1.15,2013-03-20 09:45:00,
2013-03-20 04:50:00,54.2,53.1,30.09,WNW,294,1.0,1.0,96,0.00,,,0.64,0,Wunderground v.1.15,2013-03-20 09:50:00,
2013-03-20 05:00:00,54.1,53.0,30.09,NW,317,2.0,2.0,96,0.00,,,0.64,0,Wunderground v.1.15,2013-03-20 10:00:00,
2013-03-20 05:05:00,53.6,52.5,30.09,WSW,257,3.0,8.0,96,0.00,,,0.64,0,Wunderground v.1.15,2013-03-20 10:05:00,
2013-03-20 05:10:00,53.2,51.8,30.09,WNW,284,3.0,8.0,95,0.00,,,0.64,0,Wunderground v.1.15,2013-03-20 10:10:00,
2013-03-20 05:15:00,52.9,51.8,30.09,WNW,283,4.0,8.0,96,0.00,,,0.64,0,Wunderground v.1.15,2013-03-20 10:15:00,
2013-03-20 05:20:00,52.7,51.6,30.10,West,265,3.0,3.0,96,0.00,,,0.64,0,Wunderground v.1.15,2013-03-20 10:20:00,
2013-03-20 05:25:00,52.7,51.6,30.09,WNW,284,3.0,4.0,96,0.00,,,0.64,0,Wunderground v.1.15,2013-03-20 10:25:00,
2013-03-20 05:35:00,52.5,51.4,30.10,NNW,336,3.0,5.0,96,0.00,,,0.64,0,Wunderground v.1.15,2013-03-20 10:35:00,
2013-03-20 05:40:00,52.4,51.3,30.10,WNW,294,3.0,3.0,96,0.00,,,0.64,0,Wunderground v.1.15,2013-03-20 10:40:00,
2013-03-20 05:50:00,52.3,51.2,30.10,NW,317,3.0,3.0,96,0.00,,,0.64,0,Wunderground v.1.15,2013-03-20 10:50:00,
2013-03-20 06:00:00,52.2,51.1,30.11,West,269,3.0,3.0,96,0.00,,,0.65,0,Wunderground v.1.15,2013-03-20 11:00:00,
2013-03-20 06:10:00,52.1,51.0,30.12,West,279,4.0,6.0,96,0.00,,,0.65,0,Wunderground v.1.15,2013-03-20 11:10:00,
2013-03-20 06:20:00,52.0,50.9,30.13,WNW,292,5.0,5.0,96,0.00,,,0.65,0,Wunderground v.1.15,2013-03-20 11:20:00,
2013-03-20 06:25:00,51.9,50.8,30.13,West,275,3.0,5.0,96,0.00,,,0.65,0,Wunderground v.1.15,2013-03-20 11:25:00,
2013-03-20 06:30:00,51.9,50.8,30.14,West,279,3.0,6.0,96,0.00,,,0.65,0,Wunderground v.1.15,2013-03-20 11:30:00,
2013-03-20 06:40:00,51.8,50.7,30.16,WNW,284,3.0,6.0,96,0.00,,,0.65,0,Wunderground v.1.15,2013-03-20 11:40:00,
2013-03-20 06:45:00,51.8,50.7,30.15,WNW,289,4.0,6.0,96,0.00,,,0.65,0,Wunderground v.1.15,2013-03-20 11:45:00,
2013-03-20 06:50:00,51.7,50.6,30.15,NW,314,3.0,3.0,96,0.00,,,0.65,0,Wunderground v.1.15,2013-03-20 11:50:00,
2013-03-20 06:55:00,51.4,50.0,30.16,NNW,344,4.0,4.0,95,0.00,,,0.65,0,Wunderground v.1.15,2013-03-20 11:55:00,
2013-03-20 07:00:00,51.2,49.8,30.16,North,5,4.0,4.0,95,0.00,,,0.65,0,Wunderground v.1.15,2013-03-20 12:00:00,
2013-03-20 07:05:00,51.1,49.7,30.17,NNE,23,3.0,4.0,95,0.00,,,0.65,0,Wunderground v.1.15,2013-03-20 12:05:00,
2013-03-20 07:15:00,51.0,49.9,30.17,North,350,2.0,3.0,96,0.00,,,0.65,0,Wunderground v.1.15,2013-03-20 12:15:00,
2013-03-20 07:20:00,51.0,49.9,30.17,NW,309,2.0,2.0,96,0.00,,,0.65,0,Wunderground v.1.15,2013-03-20 12:20:00,
2013-03-20 07:25:00,50.9,49.8,30.17,NW,317,2.0,2.0,96,0.00,,,0.65,0,Wunderground v.1.15,2013-03-20 12:25:00,
2013-03-20 07:30:00,50.9,49.8,30.17,North,360,1.0,1.0,96,0.00,,,0.65,0,Wunderground v.1.15,2013-03-20 12:30:00,
2013-03-20 07:35:00,50.8,49.7,30.17,North,5,1.0,1.0,96,0.00,,,0.65,0,Wunderground v.1.15,2013-03-20 12:35:00,
2013-03-20 07:45:00,50.4,49.0,30.18,WNW,303,1.0,1.0,95,0.00,,,0.65,12,Wunderground v.1.15,2013-03-20 12:45:00,
2013-03-20 07:50:00,50.1,48.7,30.18,North,355,1.0,1.0,95,0.00,,,0.65,18,Wunderground v.1.15,2013-03-20 12:50:00,
2013-03-20 07:55:00,50.0,48.6,30.18,WNW,300,2.0,2.0,95,0.00,,,0.65,21,Wunderground v.1.15,2013-03-20 12:55:00,
2013-03-20 08:00:00,49.7,48.3,30.18,WNW,298,1.0,1.0,95,0.00,,,0.65,25,Wunderground v.1.15,2013-03-20 13:00:00,
2013-03-20 08:05:00,49.6,48.2,30.19,NW,304,0.0,1.0,95,0.00,,,0.65,30,Wunderground v.1.15,2013-03-20 13:05:00,
2013-03-20 08:15:00,49.6,48.2,30.19,WNW,295,1.0,1.0,95,0.00,,,0.65,39,Wunderground v.1.15,2013-03-20 13:15:00,
2013-03-20 08:20:00,49.6,48.2,30.20,West,279,1.0,1.0,95,0.00,,,0.65,69,Wunderground v.1.15,2013-03-20 13:20:00,
2013-03-20 08:25:00,49.7,48.6,30.20,NW,317,1.0,1.0,96,0.00,,,0.65,49,Wunderground v.1.15,2013-03-20 13:25:00,
2013-03-20 08:30:00,49.8,48.4,30.20,North,5,0.0,3.0,95,0.00,,,0.65,72,Wunderground v.1.15,2013-03-20 13:30:00,
2013-03-20 08:35:00,49.9,48.5,30.20,NW,313,1.0,3.0,95,0.00,,,0.65,111,Wunderground v.1.15,2013-03-20 13:35:00,
2013-03-20 08:45:00,50.2,48.5,30.21,NNW,331,1.0,1.0,94,0.00,,,0.65,169,Wunderground v.1.15,2013-03-20 13:45:00,
2013-03-20 08:50:00,50.6,48.9,30.21,WNW,294,1.0,4.0,94,0.00,,,0.65,192,Wunderground v.1.15,2013-03-20 13:50:00,
2013-03-20 08:55:00,50.7,48.7,30.21,NNW,344,1.0,4.0,93,0.00,,,0.65,213,Wunderground v.1.15,2013-03-20 13:55:00,
2013-03-20 09:00:00,50.9,48.7,30.21,WNW,300,2.0,7.0,92,0.00,,,0.65,230,Wunderground v.1.15,2013-03-20 14:00:00,
2013-03-20 09:05:00,51.1,48.6,30.22,NW,304,2.0,7.0,91,0.00,,,0.65,253,Wunderground v.1.15,2013-03-20 14:05:00,
2013-03-20 09:15:00,51.7,48.3,30.22,NW,321,2.0,9.0,88,0.00,,,0.65,294,Wunderground v.1.15,2013-03-20 14:15:00,
2013-03-20 09:20:00,52.0,48.9,30.22,NNW,332,3.0,6.0,89,0.00,,,0.65,313,Wunderground v.1.15,2013-03-20 14:20:00,
2013-03-20 09:25:00,52.3,48.9,30.22,NNW,333,3.0,6.0,88,0.00,,,0.65,332,Wunderground v.1.15,2013-03-20 14:25:00,
2013-03-20 09:35:00,53.4,48.4,30.22,NW,324,2.0,4.0,83,0.00,,,0.65,367,Wunderground v.1.15,2013-03-20 14:35:00,
2013-03-20 09:40:00,53.6,47.9,30.22,NNW,327,3.0,5.0,81,0.00,,,0.65,381,Wunderground v.1.15,2013-03-20 14:40:00,
2013-03-20 09:45:00,53.9,47.5,30.23,North,360,3.0,5.0,79,0.00,,,0.65,401,Wunderground v.1.15,2013-03-20 14:45:00,
2013-03-20 09:50:00,54.2,47.5,30.23,North,5,3.0,3.0,78,0.00,,,0.65,418,Wunderground v.1.15,2013-03-20 14:50:00,
2013-03-20 10:00:00,55.0,46.9,30.22,North,360,3.0,3.0,74,0.00,,,0.65,457,Wunderground v.1.15,2013-03-20 15:00:00,
2013-03-20 10:05:00,55.3,47.5,30.22,NW,311,4.0,4.0,75,0.00,,,0.65,475,Wunderground v.1.15,2013-03-20 15:05:00,
2013-03-20 10:10:00,55.5,47.7,30.22,NNW,333,3.0,3.0,75,0.00,,,0.65,492,Wunderground v.1.15,2013-03-20 15:10:00,
2013-03-20 10:15:00,56.2,48.0,30.23,NW,317,3.0,5.0,74,0.00,,,0.65,508,Wunderground v.1.15,2013-03-20 15:15:00,
2013-03-20 10:20:00,56.4,47.5,30.23,NE,36,3.0,3.0,72,0.00,,,0.65,524,Wunderground v.1.15,2013-03-20 15:20:00,
2013-03-20 10:30:00,57.1,47.8,30.23,NNE,21,2.0,4.0,71,0.00,,,0.65,557,Wunderground v.1.15,2013-03-20 15:30:00,
2013-03-20 10:35:00,57.5,48.2,30.22,NNW,346,3.0,4.0,71,0.00,,,0.65,575,Wunderground v.1.15,2013-03-20 15:35:00,
2013-03-20 10:45:00,58.0,47.5,30.23,NNE,31,3.0,5.0,68,0.00,,,0.65,605,Wunderground v.1.15,2013-03-20 15:45:00,
2013-03-20 10:50:00,58.2,48.1,30.23,WSW,254,4.0,4.0,69,0.00,,,0.65,621,Wunderground v.1.15,2013-03-20 15:50:00,
2013-03-20 10:55:00,58.9,48.0,30.23,NNW,340,3.0,4.0,67,0.00,,,0.65,635,Wunderground v.1.15,2013-03-20 15:55:00,
2013-03-20 11:00:00,59.1,48.1,30.23,North,355,2.0,2.0,67,0.00,,,0.65,649,Wunderground v.1.15,2013-03-20 16:00:00,
2013-03-20 11:10:00,59.8,47.2,30.24,NNW,341,3.0,5.0,63,0.00,,,0.65,677,Wunderground v.1.15,2013-03-20 16:10:00,
2013-03-20 11:15:00,60.1,47.9,30.24,NNW,336,3.0,5.0,64,0.00,,,0.65,689,Wunderground v.1.15,2013-03-20 16:15:00,
2013-03-20 11:25:00,60.9,47.8,30.23,North,360,3.0,6.0,62,0.00,,,0.65,714,Wunderground v.1.15,2013-03-20 16:25:00,
2013-03-20 11:30:00,61.3,47.3,30.23,North,355,3.0,3.0,60,0.00,,,0.65,724,Wunderground v.1.15,2013-03-20 16:30:00,
2013-03-20 11:35:00,61.6,48.0,30.23,North,355,3.0,3.0,61,0.00,,,0.65,737,Wunderground v.1.15,2013-03-20 16:35:00,
2013-03-20 11:45:00,62.7,47.7,30.23,West,273,2.0,3.0,58,0.00,,,0.65,761,Wunderground v.1.15,2013-03-20 16:45:00,
2013-03-20 11:50:00,62.9,45.0,30.23,NW,325,3.0,4.0,52,0.00,,,0.65,775,Wunderground v.1.15,2013-03-20 16:50:00,
2013-03-20 11:55:00,63.0,46.1,30.23,NNE,13,4.0,4.0,54,0.00,,,0.65,784,Wunderground v.1.15,2013-03-20 16:55:00,
2013-03-20 12:00:00,63.7,47.7,30.23,West,267,3.0,5.0,56,0.00,,,0.65,795,Wunderground v.1.15,2013-03-20 17:00:00,
2013-03-20 12:10:00,64.7,45.1,30.23,North,11,3.0,3.0,49,0.00,,,0.65,814,Wunderground v.1.15,2013-03-20 17:10:00,
2013-03-20 12:15:00,64.7,44.5,30.23,NW,323,3.0,3.0,48,0.00,,,0.65,826,Wunderground v.1.15,2013-03-20 17:15:00,
2013-03-20 12:20:00,64.5,44.4,30.23,NW,318,4.0,4.0,48,0.00,,,0.65,819,Wunderground v.1.15,2013-03-20 17:20:00,
2013-03-20 12:25:00,64.9,44.7,30.23,North,9,3.0,4.0,48,0.00,,,0.65,824,Wunderground v.1.15,2013-03-20 17:25:00,
2013-03-20 12:30:00,65.0,43.1,30.22,NNE,17,3.0,3.0,45,0.00,,,0.65,838,Wunderground v.1.15,2013-03-20 17:30:00,
2013-03-20 12:35:00,65.2,43.9,30.22,NNW,327,4.0,4.0,46,0.00,,,0.65,846,Wunderground v.1.15,2013-03-20 17:35:00,
2013-03-20 12:45:00,65.8,42.7,30.22,NNE,22,4.0,4.0,43,0.00,,,0.65,861,Wunderground v.1.15,2013-03-20 17:45:00,
2013-03-20 12:50:00,65.8,43.9,30.22,NNE,28,4.0,4.0,45,0.00,,,0.65,868,Wunderground v.1.15,2013-03-20 17:50:00,
2013-03-20 12:55:00,66.1,42.3,30.22,NNE,20,4.0,4.0,42,0.00,,,0.65,872,Wunderground v.1.15,2013-03-20 17:55:00,
2013-03-20 13:00:00,66.7,42.2,30.21,NNW,331,4.0,6.0,41,0.00,,,0.65,877,Wunderground v.1.15,2013-03-20 18:00:00,
2013-03-20 13:05:00,66.7,40.3,30.21,NNE,21,4.0,8.0,38,0.00,,,0.65,884,Wunderground v.1.15,2013-03-20 18:05:00,
2013-03-20 13:10:00,66.8,41.7,30.21,NE,55,5.0,5.0,40,0.00,,,0.65,884,Wunderground v.1.15,2013-03-20 18:10:00,
2013-03-20 13:20:00,67.4,43.5,30.20,NNE,13,3.0,3.0,42,0.00,,,0.65,893,Wunderground v.1.15,2013-03-20 18:20:00,
2013-03-20 13:25:00,67.8,39.1,30.20,North,5,3.0,3.0,35,0.00,,,0.65,891,Wunderground v.1.15,2013-03-20 18:25:00,
2013-03-20 13:30:00,67.5,41.0,30.20,North,5,4.0,11.0,38,0.00,,,0.65,904,Wunderground v.1.15,2013-03-20 18:30:00,
2013-03-20 13:35:00,67.5,41.7,30.19,NNE,26,4.0,11.0,39,0.00,,,0.65,882,Wunderground v.1.15,2013-03-20 18:35:00,
2013-03-20 13:45:00,68.1,40.8,30.19,NNE,26,3.0,9.0,37,0.00,,,0.65,898,Wunderground v.1.15,2013-03-20 18:45:00,
2013-03-20 13:50:00,68.0,40.7,30.18,North,355,3.0,5.0,37,0.00,,,0.65,895,Wunderground v.1.15,2013-03-20 18:50:00,
2013-03-20 13:55:00,67.7,42.5,30.18,WNW,297,4.0,5.0,40,0.00,,,0.65,888,Wunderground v.1.15,2013-03-20 18:55:00,
2013-03-20 14:00:00,68.4,40.4,30.18,NNE,13,4.0,4.0,36,0.00,,,0.65,895,Wunderground v.1.15,2013-03-20 19:00:00,
2013-03-20 14:05:00,68.7,41.4,30.18,NE,46,3.0,4.0,37,0.00,,,0.65,891,Wunderground v.1.15,2013-03-20 19:05:00,
2013-03-20 14:10:00,68.6,35.1,30.18,ENE,67,4.0,4.0,29,0.00,,,0.65,895,Wunderground v.1.15,2013-03-20 19:10:00,
2013-03-20 14:20:00,69.1,41.0,30.17,North,350,3.0,3.0,36,0.00,,,0.65,889,Wunderground v.1.15,2013-03-20 19:20:00,
2013-03-20 14:30:00,69.9,37.0,30.16,NNE,26,3.0,3.0,30,0.00,,,0.65,875,Wunderground v.1.15,2013-03-20 19:30:00,
2013-03-20 14:35:00,69.7,38.5,30.16,North,355,3.0,3.0,32,0.00,,,0.65,870,Wunderground v.1.15,2013-03-20 19:35:00,
2013-03-20 14:40:00,69.9,37.9,30.16,North,350,3.0,5.0,31,0.00,,,0.65,861,Wunderground v.1.15,2013-03-20 19:40:00,
2013-03-20 14:45:00,69.4,39.8,30.16,NNE,21,3.0,5.0,34,0.00,,,0.65,860,Wunderground v.1.15,2013-03-20 19:45:00,
2013-03-20 14:50:00,69.3,39.7,30.15,NNE,16,3.0,3.0,34,0.00,,,0.65,844,Wunderground v.1.15,2013-03-20 19:50:00,
2013-03-20 15:00:00,69.5,39.1,30.15,NNE,25,2.0,9.0,33,0.00,,,0.65,844,Wunderground v.1.15,2013-03-20 20:00:00,
2013-03-20 15:10:00,69.5,35.8,30.14,North,5,3.0,3.0,29,0.00,,,0.65,830,Wunderground v.1.15,2013-03-20 20:10:00,
2013-03-20 15:15:00,69.2,36.4,30.14,ENE,59,4.0,4.0,30,0.00,,,0.65,816,Wunderground v.1.15,2013-03-20 20:15:00,
2013-03-20 15:25:00,69.8,37.8,30.14,NW,311,3.0,3.0,31,0.00,,,0.65,795,Wunderground v.1.15,2013-03-20 20:25:00,
2013-03-20 15:30:00,69.9,37.0,30.14,NNE,19,3.0,4.0,30,0.00,,,0.65,791,Wunderground v.1.15,2013-03-20 20:30:00,
2013-03-20 15:35:00,69.8,38.6,30.14,North,5,3.0,5.0,32,0.00,,,0.65,780,Wunderground v.1.15,2013-03-20 20:35:00,
2013-03-20 15:40:00,70.0,37.1,30.14,NNE,17,4.0,4.0,30,0.00,,,0.65,765,Wunderground v.1.15,2013-03-20 20:40:00,
2013-03-20 15:50:00,70.0,36.3,30.13,NNE,17,2.0,2.0,29,0.00,,,0.65,751,Wunderground v.1.15,2013-03-20 20:50:00,
2013-03-20 16:00:00,70.0,35.4,30.13,NNE,30,3.0,3.0,28,0.00,,,0.65,700,Wunderground v.1.15,2013-03-20 21:00:00,
2013-03-20 16:05:00,70.0,36.3,30.12,North,360,3.0,4.0,29,0.00,,,0.65,722,Wunderground v.1.15,2013-03-20 21:05:00,
2013-03-20 16:15:00,70.3,36.5,30.12,NNE,18,2.0,4.0,29,0.00,,,0.65,680,Wunderground v.1.15,2013-03-20 21:15:00,
2013-03-20 16:20:00,70.1,38.9,30.12,ENE,67,3.0,3.0,32,0.00,,,0.65,638,Wunderground v.1.15,2013-03-20 21:20:00,
2013-03-20 16:30:00,69.9,37.0,30.11,NNE,20,3.0,3.0,30,0.00,,,0.65,571,Wunderground v.1.15,2013-03-20 21:30:00,
2013-03-20 16:35:00,69.8,37.8,30.11,North,360,3.0,3.0,31,0.00,,,0.65,515,Wunderground v.1.15,2013-03-20 21:35:00,
2013-03-20 16:45:00,69.8,35.2,30.11,NNE,28,2.0,2.0,28,0.00,,,0.65,582,Wunderground v.1.15,2013-03-20 21:45:00,
2013-03-20 16:50:00,69.7,36.0,30.10,NE,48,2.0,2.0,29,0.00,,,0.65,577,Wunderground v.1.15,2013-03-20 21:50:00,
2013-03-20 16:55:00,69.5,35.8,30.10,NNE,22,3.0,8.0,29,0.00,,,0.65,584,Wunderground v.1.15,2013-03-20 21:55:00,
2013-03-20 17:05:00,69.2,37.3,30.10,NNE,32,4.0,4.0,31,0.00,,,0.65,533,Wunderground v.1.15,2013-03-20 22:05:00,
2013-03-20 17:15:00,69.0,37.1,30.09,NE,36,3.0,3.0,31,0.00,,,0.65,504,Wunderground v.1.15,2013-03-20 22:15:00,
2013-03-20 17:20:00,69.0,38.7,30.09,North,360,3.0,3.0,33,0.00,,,0.65,485,Wunderground v.1.15,2013-03-20 22:20:00,
2013-03-20 17:25:00,69.1,37.2,30.09,NE,42,2.0,3.0,31,0.00,,,0.65,471,Wunderground v.1.15,2013-03-20 22:25:00,
2013-03-20 17:35:00,68.3,37.3,30.08,WNW,292,2.0,3.0,32,0.00,,,0.65,441,Wunderground v.1.15,2013-03-20 22:35:00,
2013-03-20 17:40:00,68.3,37.3,30.08,NNW,348,2.0,7.0,32,0.00,,,0.65,404,Wunderground v.1.15,2013-03-20 22:40:00,
2013-03-20 17:45:00,68.4,38.2,30.08,NNE,25,3.0,7.0,33,0.00,,,0.65,404,Wunderground v.1.15,2013-03-20 22:45:00,
2013-03-20 17:50:00,68.4,38.9,30.08,NNE,13,2.0,2.0,34,0.00,,,0.65,387,Wunderground v.1.15,2013-03-20 22:50:00,
2013-03-20 18:00:00,68.6,39.8,30.08,ENE,70,1.0,1.0,35,0.00,,,0.65,214,Wunderground v.1.15,2013-03-20 23:00:00,
2013-03-20 18:10:00,67.8,38.4,30.08,NNW,338,2.0,4.0,34,0.00,,,0.65,148,Wunderground v.1.15,2013-03-20 23:10:00,
2013-03-20 18:15:00,67.4,37.3,30.08,NNE,30,2.0,4.0,33,0.00,,,0.65,158,Wunderground v.1.15,2013-03-20 23:15:00,
2013-03-20 18:20:00,67.1,37.8,30.07,NNE,16,1.0,1.0,34,0.00,,,0.65,153,Wunderground v.1.15,2013-03-20 23:20:00,
2013-03-20 18:30:00,66.8,37.5,30.07,NNE,27,2.0,6.0,34,0.00,,,0.65,121,Wunderground v.1.15,2013-03-20 23:30:00,
2013-03-20 18:35:00,66.5,38.0,30.07,NNW,338,2.0,6.0,35,0.00,,,0.65,84,Wunderground v.1.15,2013-03-20 23:35:00,
2013-03-20 18:40:00,66.2,38.4,30.07,NNE,19,1.0,2.0,36,0.00,,,0.65,109,Wunderground v.1.15,2013-03-20 23:40:00,
2013-03-20 18:45:00,66.0,38.3,30.07,North,355,1.0,2.0,36,0.00,,,0.65,107,Wunderground v.1.15,2013-03-20 23:45:00,
2013-03-20 18:50:00,65.8,39.5,30.08,North,5,1.0,1.0,38,0.00,,,0.65,111,Wunderground v.1.15,2013-03-20 23:50:00,
2013-03-20 19:00:00,65.5,39.2,30.08,NE,43,1.0,2.0,38,0.00,,,0.65,70,Wunderground v.1.15,2013-03-21 00:00:00,
2013-03-20 19:05:00,65.4,38.4,30.08,North,355,1.0,2.0,37,0.00,,,0.65,62,Wunderground v.1.15,2013-03-21 00:05:00,
2013-03-20 19:15:00,65.0,38.8,30.08,NNE,18,0.0,1.0,38,0.00,,,0.65,40,Wunderground v.1.15,2013-03-21 00:15:00,
2013-03-20 19:20:00,64.7,39.2,30.08,NNE,17,0.0,0.0,39,0.00,,,0.65,37,Wunderground v.1.15,2013-03-21 00:20:00,
2013-03-20 19:25:00,64.3,40.7,30.07,NNE,17,0.0,0.0,42,0.00,,,0.65,28,Wunderground v.1.15,2013-03-21 00:25:00,
2013-03-20 19:30:00,63.8,41.5,30.07,NNE,17,0.0,0.0,44,0.00,,,0.65,25,Wunderground v.1.15,2013-03-21 00:30:00,
2013-03-20 19:35:00,63.2,39.7,30.07,NNE,17,0.0,0.0,42,0.00,,,0.65,12,Wunderground v.1.15,2013-03-21 00:35:00,
2013-03-20 19:45:00,62.4,40.8,30.07,NNE,17,0.0,0.0,45,0.00,,,0.65,0,Wunderground v.1.15,2013-03-21 00:45:00,
2013-03-20 19:50:00,61.8,40.8,30.07,NNE,17,0.0,0.0,46,0.00,,,0.65,0,Wunderground v.1.15,2013-03-21 00:50:00,
2013-03-20 19:55:00,61.3,42.0,30.07,NNE,17,0.0,0.0,49,0.00,,,0.65,0,Wunderground v.1.15,2013-03-21 00:55:00,
2013-03-20 20:00:00,61.0,42.7,30.07,NNE,17,0.0,0.0,51,0.00,,,0.65,0,Wunderground v.1.15,2013-03-21 01:00:00,
2013-03-20 20:05:00,60.9,43.1,30.07,NNE,17,0.0,0.0,52,0.00,,,0.65,0,Wunderground v.1.15,2013-03-21 01:05:00,
2013-03-20 20:10:00,60.4,42.7,30.07,NNE,17,0.0,0.0,52,0.00,,,0.65,0,Wunderground v.1.15,2013-03-21 01:10:00,
2013-03-20 20:20:00,59.2,42.1,30.07,NNE,17,0.0,0.0,53,0.00,,,0.65,0,Wunderground v.1.15,2013-03-21 01:20:00,
2013-03-20 20:25:00,58.5,43.8,30.07,NNE,17,0.0,0.0,58,0.00,,,0.65,0,Wunderground v.1.15,2013-03-21 01:25:00,
2013-03-20 20:30:00,57.8,44.4,30.07,NNE,17,0.0,0.0,61,0.00,,,0.65,0,Wunderground v.1.15,2013-03-21 01:30:00,
2013-03-20 20:35:00,57.1,44.6,30.07,NNE,17,0.0,0.0,63,0.00,,,0.65,0,Wunderground v.1.15,2013-03-21 01:35:00,
2013-03-20 20:45:00,56.0,44.8,30.07,NNE,17,0.0,0.0,66,0.00,,,0.65,0,Wunderground v.1.15,2013-03-21 01:45:00,
2013-03-20 20:55:00,55.1,45.1,30.06,NNE,17,0.0,0.0,69,0.00,,,0.65,0,Wunderground v.1.15,2013-03-21 01:55:00,
2013-03-20 21:00:00,54.4,45.2,30.06,NNE,17,0.0,0.0,71,0.00,,,0.65,0,Wunderground v.1.15,2013-03-21 02:00:00,
2013-03-20 21:10:00,53.7,45.2,30.06,NNE,17,0.0,0.0,73,0.00,,,0.65,0,Wunderground v.1.15,2013-03-21 02:10:00,
2013-03-20 21:15:00,53.3,44.9,30.06,NNE,17,0.0,0.0,73,0.00,,,0.65,0,Wunderground v.1.15,2013-03-21 02:15:00,
2013-03-20 21:20:00,53.0,45.3,30.06,NNE,17,0.0,0.0,75,0.00,,,0.65,0,Wunderground v.1.15,2013-03-21 02:20:00,
2013-03-20 21:25:00,52.7,45.3,30.06,NNE,17,0.0,0.0,76,0.00,,,0.65,0,Wunderground v.1.15,2013-03-21 02:25:00,
2013-03-20 21:30:00,52.5,45.2,30.06,NNE,17,0.0,0.0,76,0.00,,,0.65,0,Wunderground v.1.15,2013-03-21 02:30:00,
2013-03-20 21:35:00,52.4,45.4,30.06,NNE,17,0.0,0.0,77,0.00,,,0.65,0,Wunderground v.1.15,2013-03-21 02:35:00,
2013-03-20 21:45:00,52.2,45.9,30.06,NNE,17,0.0,0.0,79,0.00,,,0.65,0,Wunderground v.1.15,2013-03-21 02:45:00,
2013-03-20 21:50:00,52.1,45.4,30.06,NNE,17,0.0,0.0,78,0.00,,,0.65,0,Wunderground v.1.15,2013-03-21 02:50:00,
2013-03-20 21:55:00,51.8,45.5,30.06,NNE,17,0.0,0.0,79,0.00,,,0.65,0,Wunderground v.1.15,2013-03-21 02:55:00,
2013-03-20 22:00:00,51.5,45.5,30.06,NNE,17,0.0,0.0,80,0.00,,,0.65,0,Wunderground v.1.15,2013-03-21 03:00:00,
2013-03-20 22:05:00,51.3,45.7,30.06,NNE,17,0.0,0.0,81,0.00,,,0.65,0,Wunderground v.1.15,2013-03-21 03:05:00,
2013-03-20 22:10:00,51.0,45.7,30.06,NNE,17,0.0,0.0,82,0.00,,,0.65,0,Wunderground v.1.15,2013-03-21 03:10:00,
2013-03-20 22:15:00,50.9,45.6,30.06,NNE,17,0.0,0.0,82,0.00,,,0.65,0,Wunderground v.1.15,2013-03-21 03:15:00,
2013-03-20 22:20:00,50.8,45.5,30.06,NNE,17,0.0,0.0,82,0.00,,,0.65,0,Wunderground v.1.15,2013-03-21 03:20:00,
2013-03-20 22:25:00,50.7,45.7,30.06,NNE,17,0.0,0.0,83,0.00,,,0.65,0,Wunderground v.1.15,2013-03-21 03:25:00,
2013-03-20 22:30:00,50.5,45.5,30.06,NNE,17,0.0,0.0,83,0.00,,,0.65,0,Wunderground v.1.15,2013-03-21 03:30:00,
2013-03-20 22:40:00,50.1,45.5,30.05,NNE,17,0.0,0.0,84,0.00,,,0.65,0,Wunderground v.1.15,2013-03-21 03:40:00,
2013-03-20 22:45:00,49.8,45.5,30.05,NNE,17,0.0,0.0,85,0.00,,,0.65,0,Wunderground v.1.15,2013-03-21 03:45:00,
2013-03-20 23:00:00,49.2,44.6,30.05,NNE,17,0.0,0.0,84,0.00,,,0.65,0,Wunderground v.1.15,2013-03-21 04:00:00,
2013-03-20 23:05:00,49.1,44.8,30.05,NNE,17,0.0,0.0,85,0.00,,,0.65,0,Wunderground v.1.15,2013-03-21 04:05:00,
2013-03-20 23:10:00,49.0,45.0,30.05,NNE,17,0.0,0.0,86,0.00,,,0.65,0,Wunderground v.1.15,2013-03-21 04:10:00,
2013-03-20 23:15:00,48.8,44.8,30.05,NNE,17,0.0,0.0,86,0.00,,,0.65,0,Wunderground v.1.15,2013-03-21 04:15:00,
2013-03-20 23:20:00,48.7,45.0,30.05,NNE,17,0.0,0.0,87,0.00,,,0.65,0,Wunderground v.1.15,2013-03-21 04:20:00,
2013-03-20 23:25:00,48.4,44.7,30.04,NNE,17,0.0,0.0,87,0.00,,,0.65,0,Wunderground v.1.15,2013-03-21 04:25:00,
2013-03-20 23:35:00,48.1,44.7,30.04,NNE,17,0.0,0.0,88,0.00,,,0.65,0,Wunderground v.1.15,2013-03-21 04:35:00,
2013-03-20 23:40:00,48.0,44.6,30.04,NNE,17,0.0,0.0,88,0.00,,,0.65,0,Wunderground v.1.15,2013-03-21 04:40:00,
2013-03-20 23:45:00,47.9,44.5,30.03,North,10,0.0,0.0,88,0.00,,,0.65,0,Wunderground v.1.15,2013-03-21 04:45:00,
2013-03-20 23:50:00,47.9,44.5,30.03,North,10,0.0,0.0,88,0.00,,,0.65,0,Wunderground v.1.15,2013-03-21 04:50:00,
2013-03-20 23:55:00,47.9,44.5,30.03,North,10,0.0,0.0,88,0.00,,,0.65,0,Wunderground v.1.15,2013-03-21 04:55:00,